sensor_id;sensor_type;location;lat;lon;timestamp;P1;durP1;ratioP1;P2;durP2;ratioP2
35578;SDS011;21687;48.900;9.188;2022-09-16T00:00:44;5.63;;;5.10;;
35578;SDS011;21687;48.900;9.188;2022-09-16T00:03:11;6.07;;;5.10;;
35578;SDS011;21687;48.900;9.188;2022-09-16T00:05:41;8.90;;;4.57;;
35578;SDS011;21687;48.900;9.188;2022-09-16T00:08:17;5.53;;;5.03;;
35578;SDS011;21687;48.900;9.188;2022-09-16T00:10:45;6.57;;;4.60;;
35578;SDS011;21687;48.900;9.188;2022-09-16T00:13:11;5.20;;;4.37;;
35578;SDS011;21687;48.900;9.188;2022-09-16T00:15:45;5.40;;;4.73;;
35578;SDS011;21687;48.900;9.188;2022-09-16T00:18:14;6.40;;;4.53;;
35578;SDS011;21687;48.900;9.188;2022-09-16T00:20:42;4.53;;;4.13;;
35578;SDS011;21687;48.900;9.188;2022-09-16T00:23:12;7.00;;;4.37;;
35578;SDS011;21687;48.900;9.188;2022-09-16T00:25:39;7.27;;;4.77;;
35578;SDS011;21687;48.900;9.188;2022-09-16T00:28:05;5.07;;;4.57;;
35578;SDS011;21687;48.900;9.188;2022-09-16T00:30:32;5.27;;;4.73;;
35578;SDS011;21687;48.900;9.188;2022-09-16T00:32:58;7.83;;;4.90;;
35578;SDS011;21687;48.900;9.188;2022-09-16T00:35:25;5.00;;;4.50;;
35578;SDS011;21687;48.900;9.188;2022-09-16T00:37:51;7.50;;;5.20;;
35578;SDS011;21687;48.900;9.188;2022-09-16T00:40:18;4.90;;;4.50;;
35578;SDS011;21687;48.900;9.188;2022-09-16T00:42:44;5.57;;;5.00;;
35578;SDS011;21687;48.900;9.188;2022-09-16T00:45:12;5.37;;;4.43;;
35578;SDS011;21687;48.900;9.188;2022-09-16T00:47:58;5.20;;;4.63;;
35578;SDS011;21687;48.900;9.188;2022-09-16T00:50:37;5.93;;;4.80;;
35578;SDS011;21687;48.900;9.188;2022-09-16T00:53:09;5.40;;;4.47;;
35578;SDS011;21687;48.900;9.188;2022-09-16T00:55:41;6.37;;;4.90;;
35578;SDS011;21687;48.900;9.188;2022-09-16T00:58:13;5.33;;;4.70;;
35578;SDS011;21687;48.900;9.188;2022-09-16T01:00:47;4.70;;;4.23;;
35578;SDS011;21687;48.900;9.188;2022-09-16T01:03:13;4.83;;;4.43;;
35578;SDS011;21687;48.900;9.188;2022-09-16T01:05:39;8.47;;;4.60;;
35578;SDS011;21687;48.900;9.188;2022-09-16T01:08:07;6.80;;;4.97;;
35578;SDS011;21687;48.900;9.188;2022-09-16T01:10:34;5.43;;;4.70;;
35578;SDS011;21687;48.900;9.188;2022-09-16T01:13:02;6.30;;;4.57;;
35578;SDS011;21687;48.900;9.188;2022-09-16T01:26:57;5.40;;;4.87;;
35578;SDS011;21687;48.900;9.188;2022-09-16T01:38:31;6.47;;;5.07;;
35578;SDS011;21687;48.900;9.188;2022-09-16T01:41:09;7.90;;;5.80;;
35578;SDS011;21687;48.900;9.188;2022-09-16T01:43:42;8.83;;;4.97;;
35578;SDS011;21687;48.900;9.188;2022-09-16T01:46:23;5.70;;;4.97;;
35578;SDS011;21687;48.900;9.188;2022-09-16T01:54:09;5.17;;;4.67;;
35578;SDS011;21687;48.900;9.188;2022-09-16T01:59:36;7.00;;;4.63;;
35578;SDS011;21687;48.900;9.188;2022-09-16T02:02:16;7.20;;;4.77;;
35578;SDS011;21687;48.900;9.188;2022-09-16T02:04:50;5.07;;;4.50;;
35578;SDS011;21687;48.900;9.188;2022-09-16T02:10:32;4.73;;;4.20;;
35578;SDS011;21687;48.900;9.188;2022-09-16T02:13:13;5.17;;;4.43;;
35578;SDS011;21687;48.900;9.188;2022-09-16T02:15:48;5.70;;;4.60;;
35578;SDS011;21687;48.900;9.188;2022-09-16T02:18:18;5.10;;;4.27;;
35578;SDS011;21687;48.900;9.188;2022-09-16T02:20:48;5.93;;;4.90;;
35578;SDS011;21687;48.900;9.188;2022-09-16T02:23:22;5.60;;;4.20;;
35578;SDS011;21687;48.900;9.188;2022-09-16T02:25:53;7.03;;;4.20;;
35578;SDS011;21687;48.900;9.188;2022-09-16T02:28:26;4.37;;;3.97;;
35578;SDS011;21687;48.900;9.188;2022-09-16T02:30:58;5.23;;;4.00;;
35578;SDS011;21687;48.900;9.188;2022-09-16T02:33:30;4.30;;;3.90;;
35578;SDS011;21687;48.900;9.188;2022-09-16T02:36:05;4.10;;;3.70;;
35578;SDS011;21687;48.900;9.188;2022-09-16T02:38:40;9.40;;;4.73;;
35578;SDS011;21687;48.900;9.188;2022-09-16T02:41:12;5.70;;;4.20;;
35578;SDS011;21687;48.900;9.188;2022-09-16T02:43:42;5.67;;;4.50;;
35578;SDS011;21687;48.900;9.188;2022-09-16T02:46:22;6.13;;;3.90;;
35578;SDS011;21687;48.900;9.188;2022-09-16T02:48:58;5.00;;;4.20;;
35578;SDS011;21687;48.900;9.188;2022-09-16T02:51:34;6.47;;;4.23;;
35578;SDS011;21687;48.900;9.188;2022-09-16T02:54:12;5.50;;;3.90;;
35578;SDS011;21687;48.900;9.188;2022-09-16T02:56:56;6.17;;;3.97;;
35578;SDS011;21687;48.900;9.188;2022-09-16T02:59:23;5.77;;;4.20;;
35578;SDS011;21687;48.900;9.188;2022-09-16T03:01:49;4.80;;;3.87;;
35578;SDS011;21687;48.900;9.188;2022-09-16T03:04:16;4.40;;;4.00;;
35578;SDS011;21687;48.900;9.188;2022-09-16T03:06:44;8.50;;;4.13;;
35578;SDS011;21687;48.900;9.188;2022-09-16T03:09:11;3.90;;;3.60;;
35578;SDS011;21687;48.900;9.188;2022-09-16T03:27:57;4.57;;;3.70;;
35578;SDS011;21687;48.900;9.188;2022-09-16T03:30:34;3.73;;;3.13;;
35578;SDS011;21687;48.900;9.188;2022-09-16T03:33:24;7.13;;;3.70;;
35578;SDS011;21687;48.900;9.188;2022-09-16T03:35:57;4.90;;;3.20;;
35578;SDS011;21687;48.900;9.188;2022-09-16T03:38:27;3.30;;;3.00;;
35578;SDS011;21687;48.900;9.188;2022-09-16T03:40:55;4.37;;;3.33;;
35578;SDS011;21687;48.900;9.188;2022-09-16T03:43:22;4.33;;;3.10;;
35578;SDS011;21687;48.900;9.188;2022-09-16T03:45:48;2.97;;;2.73;;
35578;SDS011;21687;48.900;9.188;2022-09-16T03:48:16;5.53;;;3.20;;
35578;SDS011;21687;48.900;9.188;2022-09-16T03:50:42;3.40;;;3.10;;
35578;SDS011;21687;48.900;9.188;2022-09-16T03:53:08;3.20;;;2.90;;
35578;SDS011;21687;48.900;9.188;2022-09-16T03:55:35;6.70;;;3.50;;
35578;SDS011;21687;48.900;9.188;2022-09-16T03:58:01;6.27;;;3.77;;
35578;SDS011;21687;48.900;9.188;2022-09-16T04:00:27;3.70;;;2.93;;
35578;SDS011;21687;48.900;9.188;2022-09-16T04:02:54;4.07;;;2.97;;
35578;SDS011;21687;48.900;9.188;2022-09-16T04:05:20;4.33;;;2.90;;
35578;SDS011;21687;48.900;9.188;2022-09-16T04:07:47;4.73;;;2.77;;
35578;SDS011;21687;48.900;9.188;2022-09-16T04:10:14;8.20;;;3.20;;
35578;SDS011;21687;48.900;9.188;2022-09-16T04:12:40;3.93;;;2.80;;
35578;SDS011;21687;48.900;9.188;2022-09-16T04:15:06;3.57;;;2.70;;
35578;SDS011;21687;48.900;9.188;2022-09-16T04:17:33;5.03;;;3.10;;
35578;SDS011;21687;48.900;9.188;2022-09-16T04:19:59;5.13;;;3.10;;
35578;SDS011;21687;48.900;9.188;2022-09-16T04:22:29;8.40;;;5.33;;
35578;SDS011;21687;48.900;9.188;2022-09-16T04:24:56;4.57;;;3.13;;
35578;SDS011;21687;48.900;9.188;2022-09-16T04:27:22;4.30;;;3.13;;
35578;SDS011;21687;48.900;9.188;2022-09-16T04:29:49;4.93;;;3.33;;
35578;SDS011;21687;48.900;9.188;2022-09-16T04:32:15;7.47;;;4.03;;
35578;SDS011;21687;48.900;9.188;2022-09-16T04:34:41;5.47;;;3.67;;
35578;SDS011;21687;48.900;9.188;2022-09-16T04:37:08;3.50;;;3.20;;
35578;SDS011;21687;48.900;9.188;2022-09-16T04:39:34;4.03;;;3.63;;
35578;SDS011;21687;48.900;9.188;2022-09-16T04:42:00;4.23;;;3.83;;
35578;SDS011;21687;48.900;9.188;2022-09-16T04:44:29;4.00;;;3.60;;
35578;SDS011;21687;48.900;9.188;2022-09-16T04:46:55;9.40;;;3.93;;
35578;SDS011;21687;48.900;9.188;2022-09-16T04:49:22;4.10;;;3.73;;
35578;SDS011;21687;48.900;9.188;2022-09-16T04:51:48;5.37;;;3.60;;
35578;SDS011;21687;48.900;9.188;2022-09-16T04:54:16;4.47;;;4.07;;
35578;SDS011;21687;48.900;9.188;2022-09-16T04:56:42;4.57;;;4.17;;
35578;SDS011;21687;48.900;9.188;2022-09-16T04:59:08;6.10;;;4.07;;
35578;SDS011;21687;48.900;9.188;2022-09-16T05:01:36;4.37;;;3.90;;
35578;SDS011;21687;48.900;9.188;2022-09-16T05:04:04;4.40;;;4.00;;
35578;SDS011;21687;48.900;9.188;2022-09-16T05:06:36;4.73;;;4.17;;
35578;SDS011;21687;48.900;9.188;2022-09-16T05:09:05;5.57;;;4.40;;
35578;SDS011;21687;48.900;9.188;2022-09-16T05:11:32;4.43;;;4.03;;
35578;SDS011;21687;48.900;9.188;2022-09-16T05:14:02;4.83;;;4.00;;
35578;SDS011;21687;48.900;9.188;2022-09-16T05:16:30;4.67;;;4.10;;
35578;SDS011;21687;48.900;9.188;2022-09-16T05:18:57;9.53;;;4.43;;
35578;SDS011;21687;48.900;9.188;2022-09-16T05:21:25;5.40;;;4.90;;
35578;SDS011;21687;48.900;9.188;2022-09-16T05:23:52;5.63;;;4.60;;
35578;SDS011;21687;48.900;9.188;2022-09-16T05:26:24;7.97;;;5.20;;
35578;SDS011;21687;48.900;9.188;2022-09-16T05:28:52;9.13;;;4.83;;
35578;SDS011;21687;48.900;9.188;2022-09-16T05:31:25;9.17;;;5.17;;
35578;SDS011;21687;48.900;9.188;2022-09-16T05:34:04;5.37;;;4.50;;
35578;SDS011;21687;48.900;9.188;2022-09-16T05:36:33;5.10;;;4.17;;
35578;SDS011;21687;48.900;9.188;2022-09-16T05:39:02;5.80;;;4.37;;
35578;SDS011;21687;48.900;9.188;2022-09-16T05:41:28;4.57;;;4.13;;
35578;SDS011;21687;48.900;9.188;2022-09-16T05:43:56;6.70;;;4.20;;
35578;SDS011;21687;48.900;9.188;2022-09-16T05:46:24;4.30;;;3.90;;
35578;SDS011;21687;48.900;9.188;2022-09-16T05:48:52;4.43;;;4.03;;
35578;SDS011;21687;48.900;9.188;2022-09-16T05:51:19;6.00;;;4.80;;
35578;SDS011;21687;48.900;9.188;2022-09-16T05:53:47;5.00;;;4.50;;
35578;SDS011;21687;48.900;9.188;2022-09-16T05:56:23;7.07;;;4.53;;
35578;SDS011;21687;48.900;9.188;2022-09-16T05:58:51;4.60;;;4.13;;
35578;SDS011;21687;48.900;9.188;2022-09-16T06:01:19;5.50;;;4.83;;
35578;SDS011;21687;48.900;9.188;2022-09-16T06:03:50;4.83;;;4.30;;
35578;SDS011;21687;48.900;9.188;2022-09-16T06:06:27;6.50;;;4.40;;
35578;SDS011;21687;48.900;9.188;2022-09-16T06:08:55;5.43;;;4.03;;
35578;SDS011;21687;48.900;9.188;2022-09-16T06:11:23;4.40;;;4.00;;
35578;SDS011;21687;48.900;9.188;2022-09-16T06:13:52;4.07;;;3.67;;
35578;SDS011;21687;48.900;9.188;2022-09-16T06:16:24;6.27;;;4.17;;
35578;SDS011;21687;48.900;9.188;2022-09-16T06:18:52;4.87;;;3.70;;
35578;SDS011;21687;48.900;9.188;2022-09-16T06:21:19;6.17;;;4.10;;
35578;SDS011;21687;48.900;9.188;2022-09-16T06:23:46;5.87;;;3.90;;
35578;SDS011;21687;48.900;9.188;2022-09-16T06:26:14;5.87;;;4.20;;
35578;SDS011;21687;48.900;9.188;2022-09-16T06:28:42;3.63;;;3.33;;
35578;SDS011;21687;48.900;9.188;2022-09-16T06:31:12;6.33;;;3.30;;
35578;SDS011;21687;48.900;9.188;2022-09-16T06:33:43;4.00;;;3.50;;
35578;SDS011;21687;48.900;9.188;2022-09-16T06:36:13;7.23;;;3.83;;
35578;SDS011;21687;48.900;9.188;2022-09-16T06:38:42;5.80;;;3.40;;
35578;SDS011;21687;48.900;9.188;2022-09-16T06:41:09;5.40;;;3.37;;
35578;SDS011;21687;48.900;9.188;2022-09-16T06:43:36;5.77;;;3.73;;
35578;SDS011;21687;48.900;9.188;2022-09-16T06:46:07;5.10;;;4.10;;
35578;SDS011;21687;48.900;9.188;2022-09-16T06:48:37;5.87;;;4.30;;
35578;SDS011;21687;48.900;9.188;2022-09-16T06:51:06;4.17;;;3.77;;
35578;SDS011;21687;48.900;9.188;2022-09-16T06:53:37;5.10;;;4.00;;
35578;SDS011;21687;48.900;9.188;2022-09-16T06:56:04;8.87;;;5.10;;
35578;SDS011;21687;48.900;9.188;2022-09-16T06:58:35;6.40;;;4.30;;
35578;SDS011;21687;48.900;9.188;2022-09-16T07:01:14;12.27;;;4.93;;
35578;SDS011;21687;48.900;9.188;2022-09-16T07:03:43;8.47;;;4.63;;
35578;SDS011;21687;48.900;9.188;2022-09-16T07:06:12;7.30;;;4.10;;
35578;SDS011;21687;48.900;9.188;2022-09-16T07:08:39;6.10;;;4.77;;
35578;SDS011;21687;48.900;9.188;2022-09-16T07:11:07;7.30;;;4.90;;
35578;SDS011;21687;48.900;9.188;2022-09-16T07:13:37;7.57;;;5.00;;
35578;SDS011;21687;48.900;9.188;2022-09-16T07:16:04;6.43;;;4.57;;
35578;SDS011;21687;48.900;9.188;2022-09-16T07:18:35;5.73;;;5.00;;
35578;SDS011;21687;48.900;9.188;2022-09-16T07:21:06;6.27;;;4.90;;
35578;SDS011;21687;48.900;9.188;2022-09-16T07:23:37;9.00;;;5.17;;
35578;SDS011;21687;48.900;9.188;2022-09-16T07:26:05;7.67;;;5.13;;
35578;SDS011;21687;48.900;9.188;2022-09-16T07:28:33;9.60;;;5.17;;
35578;SDS011;21687;48.900;9.188;2022-09-16T07:31:00;6.77;;;5.30;;
35578;SDS011;21687;48.900;9.188;2022-09-16T07:33:31;13.83;;;5.80;;
35578;SDS011;21687;48.900;9.188;2022-09-16T07:36:02;7.37;;;5.13;;
35578;SDS011;21687;48.900;9.188;2022-09-16T07:38:33;9.63;;;4.77;;
35578;SDS011;21687;48.900;9.188;2022-09-16T07:41:04;6.70;;;4.77;;
35578;SDS011;21687;48.900;9.188;2022-09-16T07:43:39;5.73;;;5.10;;
35578;SDS011;21687;48.900;9.188;2022-09-16T07:46:06;6.60;;;5.33;;
35578;SDS011;21687;48.900;9.188;2022-09-16T07:48:34;6.40;;;4.70;;
35578;SDS011;21687;48.900;9.188;2022-09-16T07:51:03;5.47;;;4.90;;
35578;SDS011;21687;48.900;9.188;2022-09-16T07:53:32;6.53;;;5.20;;
35578;SDS011;21687;48.900;9.188;2022-09-16T07:56:02;8.47;;;5.47;;
35578;SDS011;21687;48.900;9.188;2022-09-16T07:58:40;5.60;;;4.87;;
35578;SDS011;21687;48.900;9.188;2022-09-16T08:01:08;6.03;;;5.43;;
35578;SDS011;21687;48.900;9.188;2022-09-16T08:03:36;9.43;;;6.70;;
35578;SDS011;21687;48.900;9.188;2022-09-16T08:06:04;8.77;;;5.33;;
35578;SDS011;21687;48.900;9.188;2022-09-16T08:08:33;5.73;;;4.97;;
35578;SDS011;21687;48.900;9.188;2022-09-16T08:10:59;6.97;;;5.07;;
35578;SDS011;21687;48.900;9.188;2022-09-16T08:13:27;6.70;;;5.90;;
35578;SDS011;21687;48.900;9.188;2022-09-16T08:15:58;6.70;;;5.00;;
35578;SDS011;21687;48.900;9.188;2022-09-16T08:18:32;6.57;;;5.47;;
35578;SDS011;21687;48.900;9.188;2022-09-16T08:21:04;7.40;;;6.17;;
35578;SDS011;21687;48.900;9.188;2022-09-16T08:23:34;6.43;;;5.80;;
35578;SDS011;21687;48.900;9.188;2022-09-16T08:26:02;7.57;;;5.30;;
35578;SDS011;21687;48.900;9.188;2022-09-16T08:28:30;6.67;;;5.53;;
35578;SDS011;21687;48.900;9.188;2022-09-16T08:31:00;8.23;;;5.63;;
35578;SDS011;21687;48.900;9.188;2022-09-16T08:33:27;6.77;;;5.97;;
35578;SDS011;21687;48.900;9.188;2022-09-16T08:38:23;5.67;;;5.07;;
35578;SDS011;21687;48.900;9.188;2022-09-16T08:40:50;5.87;;;4.87;;
35578;SDS011;21687;48.900;9.188;2022-09-16T08:43:29;6.30;;;4.80;;
35578;SDS011;21687;48.900;9.188;2022-09-16T08:51:11;8.07;;;4.50;;
35578;SDS011;21687;48.900;9.188;2022-09-16T08:54:05;4.83;;;4.33;;
35578;SDS011;21687;48.900;9.188;2022-09-16T08:56:35;5.57;;;4.33;;
35578;SDS011;21687;48.900;9.188;2022-09-16T08:59:04;4.93;;;4.43;;
35578;SDS011;21687;48.900;9.188;2022-09-16T09:04:27;5.20;;;4.43;;
35578;SDS011;21687;48.900;9.188;2022-09-16T09:07:00;7.87;;;4.60;;
35578;SDS011;21687;48.900;9.188;2022-09-16T09:12:42;4.67;;;4.13;;
35578;SDS011;21687;48.900;9.188;2022-09-16T09:15:22;4.33;;;3.93;;
35578;SDS011;21687;48.900;9.188;2022-09-16T09:27:08;4.20;;;3.37;;
35578;SDS011;21687;48.900;9.188;2022-09-16T09:29:20;6.83;;;3.87;;
35578;SDS011;21687;48.900;9.188;2022-09-16T09:40:56;4.83;;;3.90;;
35578;SDS011;21687;48.900;9.188;2022-09-16T09:43:41;4.17;;;3.87;;
35578;SDS011;21687;48.900;9.188;2022-09-16T09:46:17;6.83;;;4.10;;
35578;SDS011;21687;48.900;9.188;2022-09-16T09:48:48;5.23;;;3.67;;
35578;SDS011;21687;48.900;9.188;2022-09-16T09:51:22;5.43;;;4.00;;
35578;SDS011;21687;48.900;9.188;2022-09-16T09:53:58;8.43;;;3.70;;
35578;SDS011;21687;48.900;9.188;2022-09-16T09:56:34;4.97;;;3.47;;
35578;SDS011;21687;48.900;9.188;2022-09-16T10:02:15;4.37;;;3.50;;
35578;SDS011;21687;48.900;9.188;2022-09-16T10:04:43;4.80;;;3.83;;
35578;SDS011;21687;48.900;9.188;2022-09-16T10:07:11;3.87;;;3.47;;
35578;SDS011;21687;48.900;9.188;2022-09-16T10:09:47;5.23;;;3.70;;
35578;SDS011;21687;48.900;9.188;2022-09-16T10:12:31;7.40;;;3.97;;
35578;SDS011;21687;48.900;9.188;2022-09-16T10:14:59;4.10;;;3.40;;
35578;SDS011;21687;48.900;9.188;2022-09-16T10:17:26;4.90;;;3.33;;
35578;SDS011;21687;48.900;9.188;2022-09-16T10:20:03;3.70;;;3.33;;
35578;SDS011;21687;48.900;9.188;2022-09-16T10:22:51;4.40;;;3.90;;
35578;SDS011;21687;48.900;9.188;2022-09-16T10:25:24;6.23;;;3.97;;
35578;SDS011;21687;48.900;9.188;2022-09-16T10:27:57;6.57;;;4.13;;
35578;SDS011;21687;48.900;9.188;2022-09-16T10:30:25;5.20;;;3.47;;
35578;SDS011;21687;48.900;9.188;2022-09-16T10:32:57;5.03;;;3.97;;
35578;SDS011;21687;48.900;9.188;2022-09-16T10:35:34;5.13;;;3.63;;
35578;SDS011;21687;48.900;9.188;2022-09-16T10:38:03;4.60;;;3.40;;
35578;SDS011;21687;48.900;9.188;2022-09-16T10:40:33;4.20;;;3.80;;
35578;SDS011;21687;48.900;9.188;2022-09-16T10:43:05;5.60;;;3.43;;
35578;SDS011;21687;48.900;9.188;2022-09-16T10:45:43;4.67;;;4.17;;
35578;SDS011;21687;48.900;9.188;2022-09-16T10:48:20;4.33;;;3.47;;
35578;SDS011;21687;48.900;9.188;2022-09-16T10:50:55;4.27;;;3.87;;
35578;SDS011;21687;48.900;9.188;2022-09-16T10:53:28;5.80;;;4.30;;
35578;SDS011;21687;48.900;9.188;2022-09-16T10:56:00;3.77;;;3.23;;
35578;SDS011;21687;48.900;9.188;2022-09-16T10:58:29;4.53;;;3.30;;
35578;SDS011;21687;48.900;9.188;2022-09-16T11:01:08;7.33;;;4.20;;
35578;SDS011;21687;48.900;9.188;2022-09-16T11:23:41;5.50;;;3.40;;
35578;SDS011;21687;48.900;9.188;2022-09-16T11:29:05;5.17;;;3.10;;
35578;SDS011;21687;48.900;9.188;2022-09-16T11:37:25;3.80;;;3.30;;
35578;SDS011;21687;48.900;9.188;2022-09-16T11:42:58;4.07;;;2.63;;
35578;SDS011;21687;48.900;9.188;2022-09-16T11:51:25;2.77;;;2.30;;
35578;SDS011;21687;48.900;9.188;2022-09-16T11:57:04;4.70;;;2.73;;
35578;SDS011;21687;48.900;9.188;2022-09-16T12:07:33;3.43;;;1.97;;
35578;SDS011;21687;48.900;9.188;2022-09-16T12:10:27;5.10;;;1.93;;
35578;SDS011;21687;48.900;9.188;2022-09-16T12:13:15;1.80;;;1.70;;
35578;SDS011;21687;48.900;9.188;2022-09-16T12:15:58;3.97;;;2.00;;
35578;SDS011;21687;48.900;9.188;2022-09-16T12:18:33;3.77;;;1.83;;
35578;SDS011;21687;48.900;9.188;2022-09-16T12:24:05;2.93;;;2.00;;
35578;SDS011;21687;48.900;9.188;2022-09-16T12:26:54;4.37;;;1.80;;
35578;SDS011;21687;48.900;9.188;2022-09-16T12:32:18;2.93;;;1.90;;
35578;SDS011;21687;48.900;9.188;2022-09-16T12:34:57;6.27;;;1.87;;
35578;SDS011;21687;48.900;9.188;2022-09-16T12:37:35;2.00;;;1.80;;
35578;SDS011;21687;48.900;9.188;2022-09-16T12:40:12;2.87;;;2.00;;
35578;SDS011;21687;48.900;9.188;2022-09-16T12:50:53;2.10;;;1.63;;
35578;SDS011;21687;48.900;9.188;2022-09-16T12:59:27;4.17;;;1.83;;
35578;SDS011;21687;48.900;9.188;2022-09-16T13:02:37;1.57;;;1.47;;
35578;SDS011;21687;48.900;9.188;2022-09-16T13:04:53;2.00;;;1.63;;
35578;SDS011;21687;48.900;9.188;2022-09-16T13:07:28;2.47;;;1.70;;
35578;SDS011;21687;48.900;9.188;2022-09-16T13:10:15;1.53;;;1.40;;
35578;SDS011;21687;48.900;9.188;2022-09-16T13:12:53;2.57;;;1.47;;
35578;SDS011;21687;48.900;9.188;2022-09-16T13:15:22;2.00;;;1.70;;
35578;SDS011;21687;48.900;9.188;2022-09-16T13:17:53;3.10;;;1.53;;
35578;SDS011;21687;48.900;9.188;2022-09-16T13:20:31;2.27;;;1.87;;
35578;SDS011;21687;48.900;9.188;2022-09-16T13:23:07;3.53;;;1.60;;
35578;SDS011;21687;48.900;9.188;2022-09-16T13:25:44;1.60;;;1.50;;
35578;SDS011;21687;48.900;9.188;2022-09-16T13:33:43;2.03;;;1.50;;
35578;SDS011;21687;48.900;9.188;2022-09-16T13:41:34;3.47;;;1.80;;
35578;SDS011;21687;48.900;9.188;2022-09-16T13:44:02;2.60;;;1.70;;
35578;SDS011;21687;48.900;9.188;2022-09-16T13:46:47;5.53;;;1.80;;
35578;SDS011;21687;48.900;9.188;2022-09-16T13:49:18;1.97;;;1.53;;
35578;SDS011;21687;48.900;9.188;2022-09-16T13:51:50;2.90;;;1.80;;
35578;SDS011;21687;48.900;9.188;2022-09-16T13:54:18;2.50;;;1.73;;
35578;SDS011;21687;48.900;9.188;2022-09-16T13:59:56;3.73;;;1.90;;
35578;SDS011;21687;48.900;9.188;2022-09-16T14:02:49;3.73;;;1.60;;
35578;SDS011;21687;48.900;9.188;2022-09-16T14:06:01;1.70;;;1.60;;
35578;SDS011;21687;48.900;9.188;2022-09-16T14:11:41;1.57;;;1.47;;
35578;SDS011;21687;48.900;9.188;2022-09-16T14:14:21;2.30;;;1.63;;
35578;SDS011;21687;48.900;9.188;2022-09-16T14:16:50;2.63;;;1.83;;
35578;SDS011;21687;48.900;9.188;2022-09-16T14:19:22;3.93;;;2.00;;
35578;SDS011;21687;48.900;9.188;2022-09-16T14:24:41;3.30;;;1.53;;
35578;SDS011;21687;48.900;9.188;2022-09-16T14:27:19;2.93;;;1.60;;
35578;SDS011;21687;48.900;9.188;2022-09-16T14:29:52;1.60;;;1.50;;
35578;SDS011;21687;48.900;9.188;2022-09-16T14:32:19;4.57;;;1.60;;
35578;SDS011;21687;48.900;9.188;2022-09-16T14:34:48;2.47;;;1.43;;
35578;SDS011;21687;48.900;9.188;2022-09-16T14:37:16;4.60;;;1.50;;
35578;SDS011;21687;48.900;9.188;2022-09-16T14:39:44;1.67;;;1.50;;
35578;SDS011;21687;48.900;9.188;2022-09-16T14:42:16;4.10;;;1.80;;
35578;SDS011;21687;48.900;9.188;2022-09-16T14:44:54;2.53;;;1.67;;
35578;SDS011;21687;48.900;9.188;2022-09-16T14:50:00;2.70;;;1.50;;
35578;SDS011;21687;48.900;9.188;2022-09-16T14:52:31;1.90;;;1.50;;
35578;SDS011;21687;48.900;9.188;2022-09-16T14:54:59;4.23;;;2.20;;
35578;SDS011;21687;48.900;9.188;2022-09-16T14:57:26;3.57;;;1.47;;
35578;SDS011;21687;48.900;9.188;2022-09-16T14:59:57;3.53;;;1.70;;
35578;SDS011;21687;48.900;9.188;2022-09-16T15:02:39;1.73;;;1.60;;
35578;SDS011;21687;48.900;9.188;2022-09-16T15:05:22;4.30;;;1.83;;
35578;SDS011;21687;48.900;9.188;2022-09-16T15:07:49;2.10;;;1.60;;
35578;SDS011;21687;48.900;9.188;2022-09-16T15:10:19;1.87;;;1.50;;
35578;SDS011;21687;48.900;9.188;2022-09-16T15:12:53;2.83;;;1.83;;
35578;SDS011;21687;48.900;9.188;2022-09-16T15:15:33;5.27;;;1.80;;
35578;SDS011;21687;48.900;9.188;2022-09-16T15:18:02;2.87;;;1.80;;
35578;SDS011;21687;48.900;9.188;2022-09-16T15:20:38;3.30;;;2.00;;
35578;SDS011;21687;48.900;9.188;2022-09-16T15:23:06;5.30;;;2.07;;
35578;SDS011;21687;48.900;9.188;2022-09-16T15:25:50;4.23;;;1.83;;
35578;SDS011;21687;48.900;9.188;2022-09-16T15:28:26;3.50;;;1.80;;
35578;SDS011;21687;48.900;9.188;2022-09-16T15:30:54;2.73;;;1.93;;
35578;SDS011;21687;48.900;9.188;2022-09-16T15:33:42;6.03;;;2.23;;
35578;SDS011;21687;48.900;9.188;2022-09-16T15:36:30;2.93;;;2.00;;
35578;SDS011;21687;48.900;9.188;2022-09-16T15:38:57;3.03;;;1.80;;
35578;SDS011;21687;48.900;9.188;2022-09-16T15:41:23;2.93;;;1.80;;
35578;SDS011;21687;48.900;9.188;2022-09-16T15:43:50;4.33;;;2.17;;
35578;SDS011;21687;48.900;9.188;2022-09-16T15:46:17;2.40;;;1.80;;
35578;SDS011;21687;48.900;9.188;2022-09-16T15:51:38;2.40;;;1.47;;
35578;SDS011;21687;48.900;9.188;2022-09-16T16:02:45;4.10;;;1.90;;
35578;SDS011;21687;48.900;9.188;2022-09-16T16:05:19;2.23;;;1.40;;
35578;SDS011;21687;48.900;9.188;2022-09-16T16:07:49;4.10;;;1.40;;
35578;SDS011;21687;48.900;9.188;2022-09-16T16:10:18;1.77;;;1.50;;
35578;SDS011;21687;48.900;9.188;2022-09-16T16:12:45;3.20;;;1.40;;
35578;SDS011;21687;48.900;9.188;2022-09-16T16:15:23;2.70;;;1.40;;
35578;SDS011;21687;48.900;9.188;2022-09-16T16:17:52;1.67;;;1.47;;
35578;SDS011;21687;48.900;9.188;2022-09-16T16:20:21;1.30;;;1.20;;
35578;SDS011;21687;48.900;9.188;2022-09-16T16:22:48;3.53;;;1.33;;
35578;SDS011;21687;48.900;9.188;2022-09-16T16:25:15;1.50;;;1.33;;
35578;SDS011;21687;48.900;9.188;2022-09-16T16:27:41;2.03;;;1.57;;
35578;SDS011;21687;48.900;9.188;2022-09-16T16:30:07;2.23;;;1.70;;
35578;SDS011;21687;48.900;9.188;2022-09-16T16:32:34;2.43;;;1.40;;
35578;SDS011;21687;48.900;9.188;2022-09-16T16:35:02;2.17;;;1.77;;
35578;SDS011;21687;48.900;9.188;2022-09-16T16:37:29;1.40;;;1.30;;
35578;SDS011;21687;48.900;9.188;2022-09-16T16:39:56;2.23;;;1.40;;
35578;SDS011;21687;48.900;9.188;2022-09-16T16:42:22;2.27;;;1.23;;
35578;SDS011;21687;48.900;9.188;2022-09-16T16:44:49;1.93;;;1.30;;
35578;SDS011;21687;48.900;9.188;2022-09-16T16:47:15;1.73;;;1.23;;
35578;SDS011;21687;48.900;9.188;2022-09-16T16:49:41;1.47;;;1.23;;
35578;SDS011;21687;48.900;9.188;2022-09-16T16:52:08;1.77;;;1.10;;
35578;SDS011;21687;48.900;9.188;2022-09-16T16:54:34;1.30;;;1.10;;
35578;SDS011;21687;48.900;9.188;2022-09-16T16:57:01;2.60;;;1.30;;
35578;SDS011;21687;48.900;9.188;2022-09-16T16:59:28;1.07;;;1.00;;
35578;SDS011;21687;48.900;9.188;2022-09-16T17:01:55;1.33;;;1.20;;
35578;SDS011;21687;48.900;9.188;2022-09-16T17:04:23;2.90;;;1.67;;
35578;SDS011;21687;48.900;9.188;2022-09-16T17:06:49;2.03;;;1.30;;
35578;SDS011;21687;48.900;9.188;2022-09-16T17:09:16;1.33;;;1.23;;
35578;SDS011;21687;48.900;9.188;2022-09-16T17:11:58;1.50;;;1.30;;
35578;SDS011;21687;48.900;9.188;2022-09-16T17:14:26;1.37;;;1.10;;
35578;SDS011;21687;48.900;9.188;2022-09-16T17:16:54;1.53;;;1.20;;
35578;SDS011;21687;48.900;9.188;2022-09-16T17:19:21;0.90;;;0.90;;
35578;SDS011;21687;48.900;9.188;2022-09-16T17:21:49;1.50;;;1.37;;
35578;SDS011;21687;48.900;9.188;2022-09-16T17:24:17;1.73;;;0.90;;
35578;SDS011;21687;48.900;9.188;2022-09-16T17:26:44;1.40;;;1.27;;
35578;SDS011;21687;48.900;9.188;2022-09-16T17:29:11;1.70;;;1.00;;
35578;SDS011;21687;48.900;9.188;2022-09-16T17:31:38;1.77;;;1.10;;
35578;SDS011;21687;48.900;9.188;2022-09-16T17:34:05;2.07;;;0.80;;
35578;SDS011;21687;48.900;9.188;2022-09-16T17:36:35;5.87;;;1.00;;
35578;SDS011;21687;48.900;9.188;2022-09-16T17:39:04;0.90;;;0.90;;
35578;SDS011;21687;48.900;9.188;2022-09-16T17:41:33;0.97;;;0.97;;
35578;SDS011;21687;48.900;9.188;2022-09-16T17:44:02;1.67;;;0.97;;
35578;SDS011;21687;48.900;9.188;2022-09-16T17:46:30;1.10;;;1.10;;
35578;SDS011;21687;48.900;9.188;2022-09-16T17:49:05;2.67;;;1.30;;
35578;SDS011;21687;48.900;9.188;2022-09-16T17:51:35;0.97;;;0.97;;
35578;SDS011;21687;48.900;9.188;2022-09-16T17:54:02;1.10;;;1.00;;
35578;SDS011;21687;48.900;9.188;2022-09-16T17:56:28;1.43;;;1.33;;
35578;SDS011;21687;48.900;9.188;2022-09-16T17:58:54;1.33;;;1.20;;
35578;SDS011;21687;48.900;9.188;2022-09-16T18:01:22;2.10;;;1.40;;
35578;SDS011;21687;48.900;9.188;2022-09-16T18:03:51;1.83;;;1.50;;
35578;SDS011;21687;48.900;9.188;2022-09-16T18:06:27;1.30;;;1.20;;
35578;SDS011;21687;48.900;9.188;2022-09-16T18:09:00;1.50;;;1.20;;
35578;SDS011;21687;48.900;9.188;2022-09-16T18:11:29;1.40;;;1.30;;
35578;SDS011;21687;48.900;9.188;2022-09-16T18:13:56;2.97;;;1.50;;
35578;SDS011;21687;48.900;9.188;2022-09-16T18:16:24;1.90;;;1.20;;